Time;durP1;ratioP1;P1;durP2;ratioP2;P2;SDS_P1;SDS_P2;PMS_P1;PMS_P2;Temp;Humidity;BMP_temperature;BMP_pressure;BME280_temperature;BME280_humidity;BME280_pressure;Samples;Min_cycle;Max_cycle;Signal;HPM_P1;HPM_P2
2022/03/03 00:00:10;;;;;;;22.57;16.90;;;;;;;0.77;59.12;99216.91;4189522;28;20231;-64
2022/03/03 00:02:12;;;;;;;21.10;15.87;;;;;;;0.34;60.36;99214.69;4189187;28;20257;-64
2022/03/03 00:04:14;;;;;;;21.20;16.60;;;;;;;0.38;60.47;99196.06;4183616;28;20263;-63
2022/03/03 00:06:15;;;;;;;20.83;16.30;;;;;;;1.51;58.52;99146.94;4180174;28;20234;-64
2022/03/03 00:08:17;;;;;;;22.47;17.53;;;;;;;1.80;56.94;99153.53;4188821;28;20266;-64
2022/03/03 00:10:19;;;;;;;23.87;17.30;;;;;;;2.17;55.56;99156.75;4189797;28;20237;-64
2022/03/03 00:12:20;;;;;;;23.87;16.43;;;;;;;1.80;57.15;99153.53;4192357;28;20550;-64
2022/03/03 00:14:22;;;;;;;22.73;16.17;;;;;;;1.92;56.08;99162.25;4191943;28;20257;-64
2022/03/03 00:16:24;;;;;;;21.43;16.00;;;;;;;1.09;57.96;99188.44;4192699;28;20290;-64
2022/03/03 00:18:26;;;;;;;24.23;18.27;;;;;;;0.39;60.41;99191.66;4192623;28;20238;-64
2022/03/03 00:20:28;;;;;;;22.97;17.13;;;;;;;0.76;60.08;99162.91;4192866;28;20312;-64
2022/03/03 00:22:30;;;;;;;24.17;16.10;;;;;;;0.95;60.22;99162.38;4192284;28;20233;-64
2022/03/03 00:24:32;;;;;;;23.23;17.77;;;;;;;2.69;54.63;99122.09;4191113;28;20305;-64
2022/03/03 00:26:34;;;;;;;27.87;18.83;;;;;;;1.19;57.59;99183.38;4192476;28;20309;-64
2022/03/03 00:28:36;;;;;;;22.83;18.47;;;;;;;0.62;60.54;99186.63;4192549;28;20319;-64
2022/03/03 00:30:37;;;;;;;21.93;17.27;;;;;;;1.62;58.02;99140.03;4192466;28;20743;-64
2022/03/03 00:32:40;;;;;;;21.70;16.97;;;;;;;2.28;56.20;99116.56;4192630;28;20778;-64
2022/03/03 00:34:42;;;;;;;27.10;17.27;;;;;;;3.07;53.23;99124.22;4191338;28;20819;-64
2022/03/03 00:36:44;;;;;;;22.00;17.10;;;;;;;2.48;54.38;99149.09;4191850;28;20664;-64
2022/03/03 00:38:47;;;;;;;26.17;17.07;;;;;;;2.81;53.51;99140.31;4190583;28;20872;-64
2022/03/03 00:40:48;;;;;;;20.93;16.40;;;;;;;3.10;52.59;99141.53;4192699;28;20328;-64
2022/03/03 00:42:50;;;;;;;26.07;17.03;;;;;;;3.63;51.41;99135.44;4190926;28;20336;-64
2022/03/03 00:44:52;;;;;;;22.83;16.93;;;;;;;3.46;51.69;99150.81;4192200;28;20329;-64
2022/03/03 00:46:53;;;;;;;23.70;16.67;;;;;;;2.94;52.60;99165.56;4192754;28;20295;-64
2022/03/03 00:48:55;;;;;;;21.63;17.10;;;;;;;3.33;51.75;99152.75;4191844;28;20323;-64
2022/03/03 00:50:57;;;;;;;24.63;16.67;;;;;;;3.48;51.59;99154.16;4192400;28;20261;-64
2022/03/03 00:52:59;;;;;;;22.93;17.97;;;;;;;3.40;51.78;99167.09;4191093;28;20722;-64
2022/03/03 00:55:01;;;;;;;23.73;17.40;;;;;;;3.25;52.22;99155.22;4191381;28;20312;-64
2022/03/03 00:57:04;;;;;;;22.67;17.23;;;;;;;3.09;52.53;99164.31;4192027;28;20230;-64
2022/03/03 00:59:05;;;;;;;23.97;16.73;;;;;;;2.61;53.83;99173.41;4185130;28;20325;-64
2022/03/03 01:01:07;;;;;;;26.53;19.00;;;;;;;3.08;52.43;99159.19;4183013;28;20686;-64
2022/03/03 01:03:09;;;;;;;25.60;19.73;;;;;;;3.19;52.27;99146.84;4190744;28;20241;-64
2022/03/03 01:05:11;;;;;;;25.97;19.20;;;;;;;2.82;53.24;99172.66;4191639;28;20793;-64
2022/03/03 01:07:13;;;;;;;25.80;19.93;;;;;;;2.59;53.88;99177.97;4186839;28;20298;-64
2022/03/03 01:09:14;;;;;;;27.40;19.73;;;;;;;2.82;53.16;99163.00;4177388;28;20261;-64
2022/03/03 01:11:16;;;;;;;23.90;18.33;;;;;;;2.71;53.01;99181.41;4192150;28;20328;-64
2022/03/03 01:13:20;;;;;;;23.90;19.40;;;;;;;2.85;52.89;99169.78;4189946;28;20536;-64
2022/03/03 01:15:22;;;;;;;24.93;17.73;;;;;;;3.18;52.23;99162.75;4191966;28;20280;-64
2022/03/03 01:17:23;;;;;;;26.43;18.70;;;;;;;3.35;51.83;99158.75;4191777;28;20229;-64
2022/03/03 01:19:25;;;;;;;24.93;17.67;;;;;;;3.13;52.12;99184.16;4191473;28;20233;-64
2022/03/03 01:21:27;;;;;;;25.63;17.73;;;;;;;2.57;53.51;99179.88;4192147;28;20492;-64
2022/03/03 01:23:28;;;;;;;22.13;18.63;;;;;;;2.34;54.16;99194.81;4190625;28;20264;-64
2022/03/03 01:25:30;;;;;;;24.87;17.77;;;;;;;2.55;53.33;99183.56;4191011;28;20319;-64
2022/03/03 01:27:32;;;;;;;23.93;17.93;;;;;;;2.93;52.66;99167.38;4191490;28;20234;-64
2022/03/03 01:29:34;;;;;;;21.50;17.27;;;;;;;3.01;52.39;99167.59;4191855;28;20227;-64
2022/03/03 01:31:36;;;;;;;25.40;17.83;;;;;;;2.60;53.47;99171.72;4191137;28;20319;-64
2022/03/03 01:33:38;;;;;;;28.87;19.47;;;;;;;2.49;53.26;99186.66;4187358;28;20236;-64
2022/03/03 01:35:40;;;;;;;25.67;17.53;;;;;;;2.33;53.71;99187.03;4190231;28;20330;-64
2022/03/03 01:37:42;;;;;;;23.47;18.37;;;;;;;2.75;53.26;99158.34;4190611;28;20319;-64
2022/03/03 01:39:43;;;;;;;26.37;19.27;;;;;;;2.71;53.50;99163.03;4191270;28;20764;-64
2022/03/03 01:41:45;;;;;;;25.33;18.37;;;;;;;2.33;54.53;99166.88;4191464;28;20298;-64
2022/03/03 01:43:47;;;;;;;30.70;19.47;;;;;;;2.73;53.63;99158.47;4189486;28;20267;-64
2022/03/03 01:45:49;;;;;;;26.87;18.60;;;;;;;2.67;53.22;99166.84;4191492;28;20265;-64
2022/03/03 01:47:52;;;;;;;22.57;17.83;;;;;;;2.68;53.19;99162.44;4189048;28;20319;-64
2022/03/03 01:49:56;;;;;;;27.80;18.47;;;;;;;2.54;53.39;99172.25;4176128;28;20267;-64
2022/03/03 01:51:58;;;;;;;24.27;19.70;;;;;;;2.80;52.73;99153.56;4184075;28;20226;-64
2022/03/03 01:53:59;;;;;;;26.80;19.70;;;;;;;2.04;54.39;99190.97;4181390;28;20263;-64
2022/03/03 01:56:01;;;;;;;23.07;18.13;;;;;;;2.39;54.10;99165.59;4184758;28;20398;-64
2022/03/03 01:58:04;;;;;;;24.03;19.10;;;;;;;2.07;55.24;99172.38;4190629;28;20264;-64
2022/03/03 02:00:07;;;;;;;24.00;17.63;;;;;;;0.48;59.15;99211.97;4190774;28;20325;-64
2022/03/03 02:02:10;;;;;;;24.87;18.43;;;;;;;0.83;58.90;99179.81;4183289;28;20258;-64
2022/03/03 02:04:12;;;;;;;23.43;17.70;;;;;;;0.09;60.93;99200.69;4189647;28;20233;-64
2022/03/03 02:06:14;;;;;;;23.40;17.70;;;;;;;0.37;60.73;99159.56;4180971;28;20654;-64
2022/03/03 02:08:16;;;;;;;23.27;17.87;;;;;;;0.25;61.08;99174.34;4182674;28;20265;-64
2022/03/03 02:10:18;;;;;;;23.33;17.23;;;;;;;0.43;61.13;99146.06;4188755;28;20324;-64
2022/03/03 02:12:19;;;;;;;25.20;17.90;;;;;;;0.84;60.28;99115.25;4190679;28;20223;-64
2022/03/03 02:14:21;;;;;;;28.47;18.13;;;;;;;0.47;60.97;99139.66;4189387;28;20261;-64
2022/03/03 02:16:23;;;;;;;23.43;18.03;;;;;;;1.44;59.01;99090.69;4190678;28;20248;-64
2022/03/03 02:18:24;;;;;;;23.13;17.63;;;;;;;2.61;55.55;99101.72;4190663;28;20244;-64
2022/03/03 02:20:28;;;;;;;20.83;16.63;;;;;;;2.60;54.59;99124.50;4190626;28;20228;-64
2022/03/03 02:22:34;;;;;;;22.00;16.77;;;;;;;2.72;54.51;99121.84;4190119;28;20350;-64
2022/03/03 02:24:36;;;;;;;25.93;18.63;;;;;;;2.39;55.46;99124.44;4189545;28;20320;-64
2022/03/03 02:26:39;;;;;;;25.83;18.97;;;;;;;2.48;55.30;99124.66;4190196;28;20282;-64
2022/03/03 02:28:42;;;;;;;27.13;18.53;;;;;;;2.81;54.39;99132.44;4188025;28;20248;-64
2022/03/03 02:30:44;;;;;;;27.07;18.13;;;;;;;2.71;54.39;99135.94;4190945;28;20231;-64
2022/03/03 02:32:49;;;;;;;25.20;19.07;;;;;;;2.50;54.60;99123.56;4189350;28;20301;-64
2022/03/03 02:34:50;;;;;;;26.77;19.47;;;;;;;2.41;54.78;99137.44;4187880;28;20264;-64
2022/03/03 02:36:52;;;;;;;27.83;19.03;;;;;;;1.82;56.61;99141.13;4179515;28;20274;-64
2022/03/03 02:38:56;;;;;;;26.37;19.53;;;;;;;2.30;55.34;99125.13;4189121;28;20777;-64
2022/03/03 02:40:58;;;;;;;26.43;19.20;;;;;;;2.54;54.41;99129.41;4181143;28;20260;-64
2022/03/03 02:42:59;;;;;;;24.37;18.80;;;;;;;2.54;54.12;99130.25;4183705;28;20267;-64
2022/03/03 02:45:02;;;;;;;25.40;19.73;;;;;;;2.45;54.31;99139.69;4190513;28;20747;-64
2022/03/03 02:47:05;;;;;;;26.63;19.37;;;;;;;1.57;56.56;99143.00;4189794;28;20330;-64
2022/03/03 02:49:08;;;;;;;28.43;20.87;;;;;;;1.15;57.59;99160.97;4190807;28;20645;-64
2022/03/03 02:51:10;;;;;;;25.97;19.50;;;;;;;0.92;57.27;99175.72;4190791;28;20253;-64
2022/03/03 02:53:12;;;;;;;25.30;18.40;;;;;;;-0.16;61.43;99184.09;4188560;28;20338;-64
2022/03/03 02:55:14;;;;;;;26.23;18.50;;;;;;;-0.02;60.77;99164.00;4190419;28;20266;-64
2022/03/03 02:59:35;;;;;;;22.60;17.57;;;;;;;0.88;59.53;99103.59;4190104;28;20253;-64
2022/03/03 03:01:37;;;;;;;23.87;18.07;;;;;;;1.43;57.66;99090.81;4190435;28;20231;-64
2022/03/03 03:03:39;;;;;;;26.43;20.50;;;;;;;1.23;57.59;99114.09;4189117;28;20581;-64
2022/03/03 03:05:41;;;;;;;27.40;18.07;;;;;;;2.08;55.79;99081.41;4189320;28;20629;-64
2022/03/03 03:07:43;;;;;;;24.13;18.80;;;;;;;2.32;54.72;99097.00;4190427;28;20251;-64
2022/03/03 03:09:44;;;;;;;27.17;20.63;;;;;;;2.36;54.33;99100.22;4190368;28;20277;-64
2022/03/03 03:11:46;;;;;;;27.47;18.73;;;;;;;2.23;54.56;99109.06;4189605;28;20657;-64
2022/03/03 03:13:47;;;;;;;24.03;19.13;;;;;;;2.43;54.16;99104.84;4182864;28;20253;-63
2022/03/03 03:15:49;;;;;;;29.00;20.50;;;;;;;1.85;55.15;99138.28;4188787;28;20624;-64
2022/03/03 03:17:51;;;;;;;25.23;18.53;;;;;;;2.17;55.05;99103.47;4189502;28;20708;-64
2022/03/03 03:19:53;;;;;;;24.33;18.40;;;;;;;2.43;54.06;99102.22;4190371;28;20318;-64
2022/03/03 03:21:54;;;;;;;23.77;18.93;;;;;;;2.30;54.63;99100.69;4189910;28;20262;-64
2022/03/03 03:23:56;;;;;;;23.33;19.23;;;;;;;2.22;54.54;99120.50;4188637;28;20296;-64
2022/03/03 03:25:57;;;;;;;23.40;18.20;;;;;;;2.02;54.79;99124.69;4190182;28;20282;-64
2022/03/03 03:27:59;;;;;;;23.13;17.63;;;;;;;1.84;55.54;99126.13;4190081;28;20720;-64
2022/03/03 03:30:01;;;;;;;25.90;17.30;;;;;;;1.88;55.22;99123.16;4189892;28;20810;-64
2022/03/03 03:32:03;;;;;;;26.80;19.00;;;;;;;1.78;55.73;99123.97;4189918;28;20318;-64
2022/03/03 03:34:05;;;;;;;26.03;18.97;;;;;;;1.96;55.40;99117.28;4189157;28;20275;-64
2022/03/03 03:36:06;;;;;;;25.10;18.23;;;;;;;2.03;55.52;99113.25;4189012;28;20262;-63
2022/03/03 03:38:08;;;;;;;23.90;17.67;;;;;;;1.92;55.39;99112.44;4190134;28;20318;-64
2022/03/03 03:40:10;;;;;;;22.57;17.93;;;;;;;2.20;54.78;99104.06;4190164;28;20680;-64
2022/03/03 03:42:12;;;;;;;27.00;19.43;;;;;;;2.11;55.08;99101.34;4189297;28;20250;-64
2022/03/03 03:44:14;;;;;;;23.93;19.20;;;;;;;2.22;54.67;99101.31;4187679;28;20312;-63
2022/03/03 03:46:15;;;;;;;24.67;18.20;;;;;;;1.56;55.77;99125.63;4188192;28;20605;-64
2022/03/03 03:48:17;;;;;;;22.23;18.27;;;;;;;-0.37;61.82;99162.00;4180529;28;20624;-64
2022/03/03 03:50:19;;;;;;;26.67;18.83;;;;;;;1.02;58.65;99103.44;4193075;28;20641;-64
2022/03/03 03:52:21;;;;;;;24.90;18.57;;;;;;;1.72;56.43;99077.28;4193154;28;20318;-64
2022/03/03 03:54:22;;;;;;;25.00;17.57;;;;;;;1.12;58.01;99100.97;4191257;28;20283;-64
2022/03/03 03:56:24;;;;;;;24.60;17.97;;;;;;;2.05;55.17;99079.06;4191805;28;20249;-64
2022/03/03 03:58:25;;;;;;;23.93;16.37;;;;;;;1.37;56.71;99102.56;4192883;28;20653;-64
2022/03/03 04:00:27;;;;;;;23.70;18.03;;;;;;;0.42;59.60;99123.44;4192358;28;20326;-64
2022/03/03 04:02:29;;;;;;;24.47;17.87;;;;;;;1.68;56.89;99060.94;4192500;28;20318;-64
2022/03/03 04:04:30;;;;;;;24.47;18.17;;;;;;;2.23;54.94;99053.13;4191233;28;20236;-64
2022/03/03 04:06:32;;;;;;;23.30;17.93;;;;;;;2.13;55.29;99060.91;4192611;28;20240;-64
2022/03/03 04:08:34;;;;;;;27.53;18.80;;;;;;;1.23;56.60;99103.63;4192643;28;20326;-64
2022/03/03 04:10:35;;;;;;;23.03;17.43;;;;;;;-0.25;61.19;99139.44;4192794;28;20228;-64
2022/03/03 04:12:41;;;;;;;23.83;17.63;;;;;;;0.30;61.17;99092.94;4185435;28;20229;-64
2022/03/03 04:14:42;;;;;;;24.03;17.67;;;;;;;1.85;56.09;99049.16;4180752;28;20602;-64
2022/03/03 04:16:44;;;;;;;22.50;17.93;;;;;;;2.46;54.22;99048.69;4190325;28;20290;-64
2022/03/03 04:18:46;;;;;;;24.33;17.20;;;;;;;2.42;53.79;99066.47;4192158;28;20247;-64
2022/03/03 04:20:47;;;;;;;26.27;17.60;;;;;;;0.92;57.41;99113.72;4192597;28;20315;-64
2022/03/03 04:22:49;;;;;;;22.47;18.00;;;;;;;0.71;57.97;99110.06;4191570;28;20783;-64
2022/03/03 04:24:51;;;;;;;24.70;19.10;;;;;;;-0.06;61.40;99123.34;4191099;28;20241;-64
2022/03/03 04:26:54;;;;;;;26.50;18.47;;;;;;;1.64;56.23;99060.31;4192165;28;20259;-64
2022/03/03 04:28:55;;;;;;;25.43;18.57;;;;;;;1.40;56.61;99078.78;4192618;28;20273;-64
2022/03/03 04:30:57;;;;;;;25.17;18.00;;;;;;;1.83;55.23;99058.91;4192377;28;20563;-64
2022/03/03 04:32:59;;;;;;;24.80;19.00;;;;;;;2.46;53.45;99053.91;4191022;28;20239;-64
2022/03/03 04:35:01;;;;;;;22.10;17.77;;;;;;;2.50;52.94;99078.13;4184074;28;20318;-62
2022/03/03 04:37:03;;;;;;;28.07;20.73;;;;;;;2.39;53.25;99081.63;4191480;28;20287;-64
2022/03/03 04:39:05;;;;;;;32.57;22.90;;;;;;;2.41;53.15;99090.19;4187676;28;20857;-64
2022/03/03 04:41:06;;;;;;;31.67;23.97;;;;;;;2.40;53.28;99086.75;4188806;28;20351;-64
2022/03/03 04:43:08;;;;;;;37.93;22.27;;;;;;;2.32;53.69;99091.78;4189828;28;20347;-64
2022/03/03 04:45:10;;;;;;;35.97;26.27;;;;;;;2.01;54.72;99088.09;4192144;28;20232;-64
2022/03/03 04:47:12;;;;;;;45.80;34.37;;;;;;;2.02;54.58;99092.41;4191642;28;20256;-64
2022/03/03 04:49:13;;;;;;;52.43;36.70;;;;;;;1.92;54.84;99099.31;4188590;28;20240;-64
2022/03/03 04:51:15;;;;;;;30.30;23.80;;;;;;;2.04;54.26;99087.88;4192422;28;20263;-64
2022/03/03 04:53:17;;;;;;;33.23;23.67;;;;;;;2.30;54.07;99072.66;4190699;28;20318;-64
2022/03/03 04:55:18;;;;;;;25.90;20.40;;;;;;;2.31;53.51;99071.72;4191941;28;20267;-64
2022/03/03 04:57:20;;;;;;;28.07;19.40;;;;;;;2.40;53.34;99080.66;4182816;28;20654;-64
2022/03/03 04:59:25;;;;;;;26.60;20.50;;;;;;;2.34;53.80;99075.91;4177655;28;20236;-64
2022/03/03 05:02:34;;;;;;;34.27;19.23;;;;;;;1.18;56.49;99073.50;4215860;27;20876;-64
2022/03/03 05:04:36;;;;;;;27.47;18.53;;;;;;;1.40;55.95;99070.91;4199135;28;20236;-65
2022/03/03 05:06:38;;;;;;;23.43;18.93;;;;;;;0.19;58.68;99110.25;4203714;28;20305;-65
2022/03/03 05:08:40;;;;;;;23.83;18.10;;;;;;;0.11;59.58;99099.47;4201854;28;20369;-62
2022/03/03 05:10:41;;;;;;;25.23;18.73;;;;;;;1.18;57.07;99055.16;4203746;28;20306;-63
2022/03/03 05:13:08;;;;;;;27.17;19.10;;;;;;;1.82;54.88;99049.38;4174634;28;20848;-62
2022/03/03 05:15:10;;;;;;;25.77;18.20;;;;;;;1.98;54.32;99038.50;4203335;28;20719;-65
2022/03/03 05:17:12;;;;;;;24.67;18.20;;;;;;;2.17;53.75;99045.78;4203551;28;20318;-65
2022/03/03 05:19:13;;;;;;;24.77;18.23;;;;;;;1.85;54.36;99047.34;4204511;28;20273;-64
2022/03/03 05:21:15;;;;;;;22.53;17.77;;;;;;;1.82;54.38;99055.44;4201645;28;20330;-65
2022/03/03 05:23:17;;;;;;;23.30;18.27;;;;;;;1.21;56.45;99063.63;4202576;28;20485;-65
2022/03/03 05:25:19;;;;;;;25.03;19.60;;;;;;;1.13;56.79;99064.19;4203463;28;20322;-65
2022/03/03 05:27:20;;;;;;;22.80;17.53;;;;;;;1.47;55.81;99050.31;4203192;28;20330;-64
2022/03/03 05:29:22;;;;;;;22.37;18.73;;;;;;;-0.01;59.76;99095.94;4204138;28;20318;-65
2022/03/03 05:31:23;;;;;;;28.13;19.47;;;;;;;-0.38;60.83;99100.25;4204217;28;20253;-64
2022/03/03 05:33:26;;;;;;;28.67;17.87;;;;;;;-1.43;63.60;99120.19;4201683;28;20229;-65
2022/03/03 05:35:28;;;;;;;23.07;17.90;;;;;;;-0.87;63.56;99090.50;4199883;28;20329;-60
2022/03/03 05:37:29;;;;;;;23.30;16.97;;;;;;;0.09;61.14;99030.75;4203499;28;20318;-60
2022/03/03 05:39:31;;;;;;;20.67;16.27;;;;;;;-0.57;61.18;99078.00;4203383;28;20636;-60
2022/03/03 05:41:34;;;;;;;23.13;17.30;;;;;;;-0.69;62.68;99063.16;4203352;28;20285;-60
2022/03/03 05:43:35;;;;;;;19.97;16.63;;;;;;;-0.75;61.98;99066.19;4200151;28;20262;-60
2022/03/03 05:45:38;;;;;;;21.30;17.23;;;;;;;-0.35;61.99;99032.97;4200593;28;20258;-60
2022/03/03 05:47:40;;;;;;;26.43;19.00;;;;;;;1.12;57.18;99009.31;4203673;28;20228;-60
2022/03/03 05:49:44;;;;;;;23.00;18.13;;;;;;;1.92;54.67;99016.25;4204280;28;20318;-60
2022/03/03 05:51:45;;;;;;;27.27;18.57;;;;;;;2.01;54.04;99031.22;4203497;28;20249;-62
2022/03/03 05:53:47;;;;;;;24.60;18.50;;;;;;;1.93;54.07;99030.19;4202853;28;20262;-60
2022/03/03 05:55:55;;;;;;;24.33;17.17;;;;;;;1.75;54.79;99041.16;4203695;28;20337;-60
2022/03/03 05:57:59;;;;;;;26.70;17.73;;;;;;;1.56;54.78;99056.63;4203352;28;20238;-60
2022/03/03 06:00:07;;;;;;;22.37;17.47;;;;;;;1.62;54.86;99054.38;4202039;28;20277;-60
2022/03/03 06:02:09;;;;;;;21.97;17.47;;;;;;;1.30;55.51;99062.91;4202687;28;20355;-60
2022/03/03 06:04:16;;;;;;;23.17;17.83;;;;;;;1.86;54.38;99038.53;4202357;28;20233;-62
2022/03/03 06:06:21;;;;;;;24.73;16.67;;;;;;;0.92;55.91;99086.72;4197985;28;20227;-61
2022/03/03 06:08:30;;;;;;;21.07;16.93;;;;;;;1.59;55.21;99040.69;4203752;28;20892;-59
2022/03/03 06:10:34;;;;;;;22.93;17.83;;;;;;;1.58;54.89;99066.06;4203256;28;20638;-62
2022/03/03 06:12:47;;;;;;;22.90;18.03;;;;;;;2.00;54.11;99040.06;4199151;28;20614;-60
2022/03/03 06:14:53;;;;;;;25.97;17.50;;;;;;;1.87;54.15;99053.31;4192751;28;20250;-60
2022/03/03 06:16:57;;;;;;;23.23;17.17;;;;;;;1.63;54.80;99077.03;4191665;28;20314;-62
2022/03/03 06:18:59;;;;;;;23.73;17.63;;;;;;;1.46;55.15;99080.94;4192289;28;20242;-60
2022/03/03 06:21:01;;;;;;;23.27;18.00;;;;;;;1.60;54.75;99077.25;4188685;28;20763;-60
2022/03/03 06:23:02;;;;;;;23.60;18.00;;;;;;;1.13;55.54;99107.88;4189873;28;20286;-60
2022/03/03 06:25:05;;;;;;;24.83;18.30;;;;;;;0.55;56.96;99129.47;4192387;28;20273;-60
2022/03/03 06:27:08;;;;;;;24.30;18.73;;;;;;;-0.61;61.25;99146.22;4192406;28;20231;-63
2022/03/03 06:29:09;;;;;;;24.00;18.30;;;;;;;-1.18;63.25;99148.16;4191699;28;20897;-62
2022/03/03 06:31:13;;;;;;;22.70;17.73;;;;;;;-1.48;64.54;99137.91;4192446;28;20946;-63
2022/03/03 06:33:14;;;;;;;25.00;17.50;;;;;;;-1.35;64.75;99112.72;4190807;28;20584;-61
2022/03/03 06:35:16;;;;;;;22.07;16.93;;;;;;;-0.66;63.38;99076.03;4182545;28;20783;-60
2022/03/03 06:37:17;;;;;;;21.60;17.37;;;;;;;-0.46;62.80;99069.44;4190581;28;20310;-60
2022/03/03 06:39:19;;;;;;;21.77;17.60;;;;;;;0.27;60.00;99072.25;4190325;28;20239;-60
2022/03/03 06:41:22;;;;;;;26.33;16.73;;;;;;;0.04;60.01;99079.91;4191514;28;20635;-61
2022/03/03 06:43:24;;;;;;;24.43;18.67;;;;;;;0.09;60.37;99075.19;4190476;28;20260;-61
2022/03/03 06:45:28;;;;;;;22.97;17.03;;;;;;;0.09;60.43;99056.91;4184534;28;20292;-61
2022/03/03 06:47:30;;;;;;;22.00;17.07;;;;;;;-0.59;62.51;99092.94;4190934;28;20256;-61
2022/03/03 06:49:32;;;;;;;24.27;17.53;;;;;;;-0.37;61.94;99081.03;4192554;28;20986;-61
2022/03/03 06:51:40;;;;;;;23.27;18.73;;;;;;;-0.37;62.40;99071.41;4192191;28;20262;-60
2022/03/03 06:53:44;;;;;;;22.80;17.37;;;;;;;-0.96;63.90;99091.97;4188038;28;20262;-61
2022/03/03 06:55:49;;;;;;;24.10;18.10;;;;;;;-0.24;61.98;99060.97;4189353;28;20315;-60
2022/03/03 06:57:56;;;;;;;21.33;17.80;;;;;;;-0.94;63.57;99082.25;4191303;28;20916;-60
2022/03/03 07:00:01;;;;;;;25.40;17.30;;;;;;;-0.68;63.67;99053.56;4191653;28;20256;-60
2022/03/03 07:02:04;;;;;;;20.90;16.40;;;;;;;-0.27;62.73;99018.53;4191397;28;20776;-60
2022/03/03 07:04:08;;;;;;;27.73;19.47;;;;;;;-1.07;64.94;99022.22;4190858;28;20767;-60
2022/03/03 07:06:10;;;;;;;29.47;20.47;;;;;;;-0.83;63.91;99026.72;4188635;28;20776;-62
2022/03/03 07:08:13;;;;;;;33.87;24.37;;;;;;;0.96;58.78;98975.63;4189805;28;20260;-62
2022/03/03 07:10:23;;;;;;;32.97;23.23;;;;;;;-0.07;60.62;99038.03;4191586;28;20256;-64
2022/03/03 07:12:26;;;;;;;29.80;22.23;;;;;;;-0.34;62.40;99016.34;4185552;28;20256;-60
2022/03/03 07:14:28;;;;;;;34.73;24.53;;;;;;;0.77;59.78;98978.78;4184273;28;20325;-62
2022/03/03 07:17:09;;;;;;;37.10;25.37;;;;;;;1.40;57.98;98978.41;4191423;28;20773;-62
2022/03/03 07:19:26;;;;;;;42.23;25.80;;;;;;;0.95;58.67;98998.31;4185671;28;20274;-59
2022/03/03 07:21:31;;;;;;;38.33;27.60;;;;;;;-1.73;65.27;99071.69;4187318;28;20251;-62
2022/03/03 07:23:38;;;;;;;43.77;29.17;;;;;;;-1.14;66.44;99015.72;4189432;28;20326;-62
2022/03/03 07:25:46;;;;;;;41.83;27.33;;;;;;;0.70;60.55;98972.31;4190050;28;20258;-62
2022/03/03 07:27:48;;;;;;;33.33;23.70;;;;;;;-0.73;63.64;99038.22;4179115;28;20274;-61
2022/03/03 07:30:01;;;;;;;31.33;22.10;;;;;;;-0.47;63.50;99025.16;4190670;28;20263;-61
2022/03/03 07:32:07;;;;;;;42.10;28.33;;;;;;;0.52;60.95;98992.84;4190839;28;20330;-62
2022/03/03 07:34:11;;;;;;;30.03;20.70;;;;;;;0.67;60.25;98996.09;4190100;28;20733;-62
2022/03/03 07:36:24;;;;;;;34.50;25.67;;;;;;;-0.28;64.40;99003.78;4190747;28;20945;-61
2022/03/03 07:38:34;;;;;;;30.67;22.77;;;;;;;-0.08;62.88;99010.22;4191045;28;20707;-61
2022/03/03 07:40:39;;;;;;;28.13;21.30;;;;;;;-0.29;63.59;99013.41;4191419;28;20262;-62
2022/03/03 07:42:40;;;;;;;32.70;25.67;;;;;;;0.69;60.08;99005.50;4188297;28;20264;-61
2022/03/03 07:44:45;;;;;;;30.30;21.87;;;;;;;-0.03;61.39;99034.25;4187500;28;20242;-61
2022/03/03 07:46:47;;;;;;;24.97;19.60;;;;;;;0.30;61.74;99009.28;4188688;28;20245;-62
2022/03/03 07:48:51;;;;;;;27.87;19.53;;;;;;;0.09;62.98;99009.03;4190344;28;20694;-61
2022/03/03 07:50:52;;;;;;;33.47;24.63;;;;;;;0.80;61.89;98977.69;4191273;28;20639;-61
2022/03/03 07:52:54;;;;;;;25.23;19.77;;;;;;;1.28;59.79;98975.78;4189158;28;20323;-61
2022/03/03 07:54:56;;;;;;;26.27;19.60;;;;;;;0.97;60.36;99013.94;4190372;28;20622;-62
2022/03/03 07:56:59;;;;;;;25.20;18.70;;;;;;;1.27;59.84;99004.69;4190289;28;20275;-61
2022/03/03 07:59:03;;;;;;;26.10;20.27;;;;;;;1.02;60.13;99021.44;4189967;28;20244;-61
2022/03/03 08:01:07;;;;;;;26.50;20.37;;;;;;;1.64;58.93;99010.53;4190291;28;20275;-62
2022/03/03 08:03:13;;;;;;;24.03;19.13;;;;;;;0.09;64.03;99040.41;4189029;28;20241;-61
2022/03/03 08:05:15;;;;;;;26.33;19.37;;;;;;;1.96;58.52;98998.47;4190922;28;20237;-62
2022/03/03 08:07:19;;;;;;;28.33;19.87;;;;;;;2.42;56.63;99013.97;4190102;28;20292;-62
2022/03/03 08:09:22;;;;;;;27.10;21.07;;;;;;;2.91;55.62;98998.59;4189739;28;20652;-61
2022/03/03 08:11:26;;;;;;;27.53;19.80;;;;;;;1.63;59.92;99029.03;4190285;28;20765;-62
2022/03/03 08:13:28;;;;;;;26.97;19.20;;;;;;;2.21;58.49;98992.94;4188973;28;20233;-62
2022/03/03 08:15:30;;;;;;;26.67;19.17;;;;;;;2.79;56.63;98996.97;4186650;28;20255;-62
2022/03/03 08:17:35;;;;;;;29.00;19.63;;;;;;;3.05;55.72;99000.06;4189637;28;20278;-62
2022/03/03 08:19:38;;;;;;;25.47;20.13;;;;;;;2.77;57.32;99025.16;4190498;28;20800;-60
2022/03/03 08:21:44;;;;;;;29.40;21.27;;;;;;;2.69;57.19;99020.56;4189826;28;20624;-60
2022/03/03 08:23:45;;;;;;;27.47;20.97;;;;;;;2.73;57.24;99014.09;4186506;28;20249;-62
2022/03/03 08:25:47;;;;;;;28.60;19.93;;;;;;;2.70;57.46;99029.25;4190124;28;20230;-62
2022/03/03 08:27:49;;;;;;;27.27;21.17;;;;;;;2.72;57.39;99035.22;4189358;28;20326;-62
2022/03/03 08:29:52;;;;;;;30.20;23.40;;;;;;;2.40;58.14;99041.28;4190677;28;20696;-59
2022/03/03 08:31:56;;;;;;;30.00;22.23;;;;;;;1.97;59.33;99042.09;4190427;28;20269;-61
2022/03/03 08:34:12;;;;;;;28.77;20.20;;;;;;;2.32;58.21;99036.69;4187860;28;20317;-62
2022/03/03 08:36:21;;;;;;;29.80;22.37;;;;;;;2.56;57.90;99025.16;4186833;28;20510;-61
2022/03/03 08:38:23;;;;;;;27.90;20.03;;;;;;;2.49;57.30;99042.31;4190251;28;20247;-62
2022/03/03 08:40:26;;;;;;;29.47;21.00;;;;;;;2.52;56.85;99031.59;4189433;28;20255;-61
2022/03/03 08:42:34;;;;;;;29.53;21.63;;;;;;;2.56;57.02;99030.41;4189768;28;20680;-61
2022/03/03 08:44:38;;;;;;;30.67;21.17;;;;;;;2.69;56.86;99031.06;4189581;28;20269;-62
2022/03/03 08:46:42;;;;;;;27.87;20.77;;;;;;;2.53;57.21;99043.75;4189968;28;20236;-62
2022/03/03 08:48:45;;;;;;;28.33;21.27;;;;;;;2.74;56.83;99035.91;4190129;28;20342;-61
2022/03/03 08:50:50;;;;;;;28.03;21.93;;;;;;;2.82;57.14;99042.22;4190211;28;20667;-62
2022/03/03 08:52:52;;;;;;;32.60;22.20;;;;;;;2.45;57.73;99066.22;4188093;28;20324;-61
2022/03/03 08:54:54;;;;;;;29.40;20.83;;;;;;;3.03;56.62;99046.66;4189775;28;20625;-61
2022/03/03 08:56:56;;;;;;;28.03;20.83;;;;;;;2.08;58.94;99084.03;4190007;28;20444;-61
2022/03/03 08:58:58;;;;;;;24.43;19.10;;;;;;;2.52;58.57;99056.06;4189361;28;20276;-62
2022/03/03 09:00:59;;;;;;;27.17;18.93;;;;;;;2.89;57.65;99042.56;4190429;28;20241;-62
2022/03/03 09:03:03;;;;;;;26.20;19.90;;;;;;;3.20;56.62;99045.25;4175632;28;20584;-62
2022/03/03 09:05:06;;;;;;;27.57;19.87;;;;;;;2.96;57.05;99063.84;4187664;28;20274;-61
2022/03/03 09:07:08;;;;;;;28.20;20.43;;;;;;;2.68;57.91;99068.75;4187475;28;20260;-62
2022/03/03 09:09:10;;;;;;;29.73;22.33;;;;;;;2.61;59.15;99054.47;4184259;28;20259;-62
2022/03/03 09:11:12;;;;;;;28.60;21.80;;;;;;;3.23;56.94;99039.72;4189724;28;20512;-62
2022/03/03 09:13:13;;;;;;;27.03;21.00;;;;;;;2.44;58.98;99075.03;4188122;28;20287;-61
2022/03/03 09:15:15;;;;;;;25.30;19.70;;;;;;;2.66;59.95;99054.06;4184793;28;20228;-61
2022/03/03 09:17:18;;;;;;;26.23;20.83;;;;;;;3.23;58.04;99050.25;4188896;28;20674;-62
2022/03/03 09:19:21;;;;;;;25.67;19.97;;;;;;;3.52;57.28;99060.13;4189956;28;20689;-62
2022/03/03 09:21:23;;;;;;;28.87;20.87;;;;;;;3.68;56.93;99059.63;4190215;28;20238;-62
2022/03/03 09:23:24;;;;;;;24.70;19.83;;;;;;;3.31;56.94;99070.59;4185051;28;20266;-62
2022/03/03 09:25:26;;;;;;;27.50;20.97;;;;;;;3.73;55.99;99054.81;4187332;28;20262;-62
2022/03/03 09:27:28;;;;;;;26.90;21.80;;;;;;;3.91;55.63;99053.22;4189127;28;20613;-61
2022/03/03 09:29:33;;;;;;;31.57;21.90;;;;;;;3.78;56.01;99059.66;4185173;28;20628;-61
2022/03/03 09:31:34;;;;;;;27.73;20.10;;;;;;;3.66;56.09;99059.75;4185304;28;20575;-61
2022/03/03 09:33:36;;;;;;;29.43;20.30;;;;;;;3.33;57.25;99066.03;4187094;28;20266;-62